Nearby METAR Reports

 

EGOS - RAF Shawbury, Shropshire, UK
Distance from station: NE 9mi, 14km
Updated: 24/01/2019 05:50
Mostly cloudy
Mostly cloudy
 Wind from NE
Wind: NE 1 mph , 2 km/h
Temperature: 0°C
Dew Point: 0°C
Humidity: 100%
Barometer: 1008 hPa
Clouds: Mostly cloudy
Visibility: 6 miles , 10 km
Cloud details: Partly cloudy 762 m
Mostly cloudy 1158 m
2019/01/24 05:50 EGOS 240550Z 05001KT 9999 SCT025 BKN038 00/00 Q1008 BLU
KNUQ - Moffett Nas/Mtn, California, USA
Distance from station: N 9mi, 14km
Updated: 24/01/2019 05:56
Clear
Clear
 Wind from NNW
Wind: NNW 3 mph , 6 km/h
Temperature: 12°C
Dew Point: 3°C
Humidity: 54%
Barometer: 1026.4 hPa
Clouds: Clear
Visibility: 10 miles , 16 km
2019/01/24 05:56 KNUQ 240556Z 34003KT 10SM CLR 12/03 A3031 RMK AO2 SLP267 T01170033 10156 20100 58008
 
KPAO - Palo Alto, California, USA
Distance from station: NNW 14mi, 23km
Updated: 24/01/2019 03:47
NOT Current
Clear
Clear
 Wind from calm
Wind: Calm
Temperature: 12°C
Dew Point: 5°C
Humidity: 63%
Barometer: 1027.4 hPa
Clouds: Clear
Visibility: 10 miles , 16 km
2019/01/24 03:47 KPAO 240347Z 00000KT 10SM SKC 12/05 A3034
KRHV - San Jose/Reid, California, USA
Distance from station: ENE 12mi, 19km
Updated: 24/01/2019 05:51
Clear
Clear
 Wind from SE
Wind: SE 6 mph , 9 km/h
Temperature: 9°C
Wind Chill: 7°C
Dew Point: 5°C
Humidity: 76%
Barometer: 1026.1 hPa
Clouds: Clear
Visibility: 10 miles , 16 km
2019/01/24 05:51 KRHV 240551Z 14005KT 10SM SKC 09/05 A3030 RMK LAST
 
KOAK - Oakland, California, USA
Distance from station: NNW 31mi, 50km
Updated: 24/01/2019 05:53
Few Clouds
Few Clouds
 Wind from calm
Wind: Calm
Temperature: 11°C
Dew Point: 3°C
Humidity: 58%
Barometer: 1026.8 hPa
Clouds: Few Clouds
Visibility: 10 miles , 16 km
Cloud details: Few Clouds 6096 m
2019/01/24 05:53 KOAK 240553Z 00000KT 10SM FEW200 11/03 A3032 RMK AO2 SLP267 T01110033 10150 20094 57005
KSQL - San Carlos Airpo, California, USA
Distance from station: NW 21mi, 34km
Updated: 24/01/2019 06:35
Clear
Clear
 Wind from calm
Wind: Calm
Temperature: 9°C
Dew Point: 4°C
Humidity: 71%
Barometer: 1026.4 hPa
Clouds: Clear
Visibility: 10 miles , 16 km
2019/01/24 06:35 KSQL 240635Z AUTO 00000KT 10SM CLR 09/04 A3031 RMK AO2
 
KSFO - San Francisco, California, USA
Distance from station: NW 30mi, 49km
Updated: 24/01/2019 05:56
Few Clouds
Few Clouds
 Wind from SE
Wind: SE 3 mph , 6 km/h
Temperature: 11°C
Dew Point: 3°C
Humidity: 58%
Barometer: 1026.4 hPa
Clouds: Few Clouds
Visibility: 10 miles , 16 km
Cloud details: Few Clouds 5486 m
2019/01/24 05:56 KSFO 240556Z 13003KT 10SM FEW180 11/03 A3031 RMK AO2 SLP262 T01110028 10150 20100 58007
KE16 - San Martin, California, USA
Distance from station: ESE 27mi, 43km
Updated: 24/01/2019 06:30
Clear
Clear
 Wind from calm
Wind: Calm
Temperature: 7°C
Dew Point: 4°C
Humidity: 81%
Barometer: 1026.4 hPa
Clouds: Clear
Visibility: 10 miles , 16 km
2019/01/24 06:30 KE16 240630Z AUTO 00000KT 10SM CLR 07/04 A3031 RMK AO2
 
KWVI - Watsonville, California, USA
Distance from station: SSE 27mi, 44km
Updated: 24/01/2019 05:53
Clear
Clear
 Wind from NNW
Wind: NNW 5 mph , 7 km/h
Temperature: 8°C
Wind Chill: 7°C
Dew Point: 5°C
Humidity: 82%
Barometer: 1025.7 hPa
Clouds: Clear
Visibility: 10 miles , 16 km
2019/01/24 05:53 KWVI 240553Z AUTO 33004KT 10SM CLR 08/05 A3029 RMK AO2 SLP258 T00780050 10161 20067 58002
KHAF - Half Moon Bay, California, USA
Distance from station: WNW 31mi, 50km
Updated: 23/01/2019 21:15
NOT Current
Clear
Clear
 Wind from NNW
Wind: NNW 15 mph , 24 km/h
Temperature: 15°C
Dew Point: 7°C
Humidity: 59%
Barometer: 1028.4 hPa
Clouds: Clear
Visibility: 8 miles , 13 km
2019/01/23 21:15 KHAF 232115Z AUTO 33013KT 8SM CLR 15/07 A3037 RMK AO2
 
KHWD - Hayward, California, USA
Distance from station: N 28mi, 44km
Updated: 24/01/2019 05:54
Clear
Clear
 Wind from NE
Wind: NE 8 mph , 13 km/h
Temperature: 11°C
Dew Point: 3°C
Humidity: 58%
Barometer: 1026.4 hPa
Clouds: Clear
Visibility: 10 miles , 16 km
2019/01/24 05:54 KHWD 240554Z AUTO 05007KT 10SM CLR 11/03 A3031 RMK AO2 SLP274 T01060033 10167 20100 56006
KLVK - Livermore, California, USA
Distance from station: NNE 31mi, 51km
Updated: 24/01/2019 05:53
Clear
Clear
 Wind from calm
Wind: Calm
Temperature: 7°C
Dew Point: 3°C
Humidity: 76%
Barometer: 1026.8 hPa
Clouds: Clear
Visibility: 8 miles , 13 km
2019/01/24 05:53 KLVK 240553Z AUTO 00000KT 8SM CLR 07/03 A3032 RMK AO2 SLP267 T00670033 10144 20061 55004